Time;durP1;ratioP1;P1;durP2;ratioP2;P2;SDS_P1;SDS_P2;PMS_P1;PMS_P2;Temp;Humidity;BMP_temperature;BMP_pressure;BME280_temperature;BME280_humidity;BME280_pressure;Samples;Min_cycle;Max_cycle;Signal;HPM_P1;HPM_P2
2021/01/28 00:00:00;;;;;;;32.47;14.82;;;2.70;88.80;;;;;;5052788;28;20023;-67
2021/01/28 00:02:25;;;;;;;28.88;13.75;;;2.70;89.00;;;;;;5052844;28;20036;-67
2021/01/28 00:04:51;;;;;;;29.08;14.00;;;2.70;89.00;;;;;;5051288;28;20108;-67
2021/01/28 00:07:17;;;;;;;31.48;14.15;;;2.70;89.10;;;;;;5050938;28;20067;-67
2021/01/28 00:09:42;;;;;;;28.90;14.20;;;2.70;89.10;;;;;;5054007;28;20029;-67
2021/01/28 00:12:08;;;;;;;28.25;14.15;;;2.70;89.40;;;;;;5051935;28;20155;-67
2021/01/28 00:14:33;;;;;;;26.05;12.30;;;2.80;88.90;;;;;;5052434;28;20104;-67
2021/01/28 00:16:59;;;;;;;25.85;12.85;;;2.80;88.90;;;;;;5051175;28;20044;-66
2021/01/28 00:19:25;;;;;;;23.45;12.50;;;2.80;88.80;;;;;;5051455;28;20107;-67
2021/01/28 00:21:50;;;;;;;27.17;13.13;;;2.80;88.70;;;;;;5050897;28;20017;-67
2021/01/28 00:24:16;;;;;;;26.60;13.40;;;2.80;88.70;;;;;;5051677;28;20032;-67
2021/01/28 00:26:42;;;;;;;25.50;13.02;;;2.90;88.70;;;;;;5051527;28;20025;-66
2021/01/28 00:29:07;;;;;;;28.35;13.48;;;2.90;88.70;;;;;;5053105;28;20393;-66
2021/01/28 00:31:33;;;;;;;27.58;13.30;;;2.90;88.60;;;;;;5052604;28;20064;-66
2021/01/28 00:33:58;;;;;;;28.33;13.65;;;2.90;88.60;;;;;;5052322;28;20029;-66
2021/01/28 00:36:24;;;;;;;28.30;13.15;;;3.00;88.60;;;;;;5031795;28;20021;-66
2021/01/28 00:38:49;;;;;;;34.75;16.38;;;3.00;88.60;;;;;;5057692;28;20639;-66
2021/01/28 00:41:15;;;;;;;27.83;14.05;;;3.00;88.60;;;;;;5025447;28;20024;-66
2021/01/28 00:43:41;;;;;;;27.63;14.10;;;3.00;88.60;;;;;;5052970;28;20674;-66
2021/01/28 00:46:07;;;;;;;26.70;12.73;;;3.00;88.60;;;;;;5051393;28;20033;-66
2021/01/28 00:48:33;;;;;;;25.98;13.52;;;3.00;88.60;;;;;;5051400;28;20023;-66
2021/01/28 00:51:00;;;;;;;27.33;14.38;;;3.00;88.60;;;;;;5050444;28;20117;-66
2021/01/28 00:53:26;;;;;;;26.77;14.20;;;3.00;89.10;;;;;;5050525;28;20159;-66
2021/01/28 00:55:52;;;;;;;27.42;15.02;;;3.00;88.50;;;;;;5050030;28;20032;-66
2021/01/28 00:58:20;;;;;;;24.73;13.43;;;3.00;88.50;;;;;;5050549;28;20033;-66
2021/01/28 01:00:47;;;;;;;28.38;14.80;;;3.00;88.50;;;;;;5051698;28;20028;-66
2021/01/28 01:03:15;;;;;;;23.52;11.88;;;3.00;88.50;;;;;;5033290;28;20469;-66
2021/01/28 01:05:42;;;;;;;20.33;11.52;;;3.00;88.50;;;;;;5049776;28;20029;-66
2021/01/28 01:08:11;;;;;;;27.17;12.95;;;3.00;88.60;;;;;;5033144;28;20115;-66
2021/01/28 01:10:42;;;;;;;22.40;11.95;;;3.00;88.70;;;;;;5052057;28;20035;-66
2021/01/28 01:13:10;;;;;;;27.35;12.38;;;3.10;88.70;;;;;;5047143;28;20033;-66
2021/01/28 01:15:36;;;;;;;24.95;11.85;;;3.10;88.70;;;;;;5050992;28;20416;-66
2021/01/28 01:18:02;;;;;;;20.08;11.85;;;3.10;88.60;;;;;;5051577;28;20117;-66
2021/01/28 01:20:28;;;;;;;23.67;11.85;;;3.10;88.70;;;;;;5050160;28;20075;-66
2021/01/28 01:22:53;;;;;;;22.83;12.13;;;3.10;88.50;;;;;;5031258;28;20029;-66
2021/01/28 01:25:20;;;;;;;25.55;11.35;;;3.10;88.50;;;;;;5049900;28;20017;-66
2021/01/28 01:27:46;;;;;;;21.65;11.65;;;3.20;88.60;;;;;;5033166;28;20037;-66
2021/01/28 01:30:13;;;;;;;18.58;10.38;;;3.20;88.50;;;;;;5031727;28;20039;-66
2021/01/28 01:32:39;;;;;;;18.38;10.35;;;3.20;88.50;;;;;;5048978;28;20037;-66
2021/01/28 01:35:06;;;;;;;23.20;12.68;;;3.20;88.40;;;;;;5050037;28;20089;-66
2021/01/28 01:37:32;;;;;;;20.70;10.90;;;3.20;88.40;;;;;;5044888;28;20044;-66
2021/01/28 01:39:58;;;;;;;24.02;11.48;;;3.30;88.40;;;;;;5043723;28;20044;-66
2021/01/28 01:42:23;;;;;;;22.15;11.35;;;3.30;88.40;;;;;;5047718;28;20057;-66
2021/01/28 01:44:49;;;;;;;19.60;10.60;;;3.30;88.40;;;;;;5047361;28;20021;-66
2021/01/28 01:47:17;;;;;;;20.48;10.68;;;3.30;88.40;;;;;;5031910;28;20032;-66
2021/01/28 01:49:45;;;;;;;25.80;10.43;;;3.20;88.50;;;;;;5050866;28;20032;-66
2021/01/28 01:52:12;;;;;;;24.00;10.82;;;3.30;88.50;;;;;;5050233;28;20365;-66
2021/01/28 01:54:39;;;;;;;28.98;11.50;;;3.30;88.50;;;;;;5049486;28;20036;-66
2021/01/28 01:57:10;;;;;;;21.42;10.60;;;3.20;88.50;;;;;;5047628;28;20040;-66
2021/01/28 01:59:49;;;;;;;17.38;10.52;;;3.20;88.60;;;;;;5051219;28;20493;-66
2021/01/28 02:02:19;;;;;;;19.73;10.00;;;3.20;88.60;;;;;;5050400;28;20087;-66
2021/01/28 02:04:48;;;;;;;20.98;10.55;;;3.20;88.60;;;;;;5048828;28;20112;-66
2021/01/28 02:07:24;;;;;;;19.83;9.80;;;3.30;88.70;;;;;;5034395;28;20037;-67
2021/01/28 02:09:50;;;;;;;17.15;9.60;;;3.30;88.70;;;;;;5051506;28;20545;-67
2021/01/28 02:12:17;;;;;;;13.57;8.20;;;3.30;88.60;;;;;;5031058;28;20413;-66
2021/01/28 02:14:44;;;;;;;21.60;9.82;;;3.30;88.70;;;;;;5048339;28;20036;-66
2021/01/28 02:17:16;;;;;;;17.10;9.00;;;3.30;88.90;;;;;;5049136;28;20029;-66
2021/01/28 02:19:51;;;;;;;16.52;7.70;;;3.20;89.00;;;;;;5049324;28;20025;-66
2021/01/28 02:22:48;;;;;;;13.70;8.30;;;3.30;89.00;;;;;;5048877;28;20101;-66
2021/01/28 02:25:32;;;;;;;15.18;8.57;;;3.30;89.10;;;;;;4996333;28;20032;-66
2021/01/28 02:28:10;;;;;;;11.75;7.45;;;3.30;89.10;;;;;;5048910;28;20507;-66
2021/01/28 02:30:37;;;;;;;12.30;7.40;;;3.30;89.10;;;;;;5049305;28;20037;-66
2021/01/28 02:33:06;;;;;;;14.32;8.45;;;3.30;89.20;;;;;;5049922;28;20087;-66
2021/01/28 02:35:33;;;;;;;10.20;6.25;;;3.30;89.20;;;;;;5031800;28;20024;-66
2021/01/28 02:38:02;;;;;;;11.68;6.30;;;3.30;89.10;;;;;;5049768;28;20056;-66
2021/01/28 02:40:30;;;;;;;9.73;6.75;;;3.30;89.20;;;;;;5049398;28;20028;-66
2021/01/28 02:42:56;;;;;;;9.25;5.95;;;3.30;89.20;;;;;;5049430;28;20022;-66
2021/01/28 02:45:33;;;;;;;12.55;6.43;;;3.30;89.20;;;;;;5049062;28;20623;-66
2021/01/28 02:48:03;;;;;;;11.15;5.65;;;3.30;89.20;;;;;;5042278;28;20025;-66
2021/01/28 02:50:30;;;;;;;10.18;6.07;;;3.30;89.20;;;;;;5048377;28;20116;-66
2021/01/28 02:52:57;;;;;;;12.30;6.57;;;3.30;89.20;;;;;;5049535;28;20063;-66
2021/01/28 02:55:26;;;;;;;11.13;6.53;;;3.40;89.20;;;;;;5048709;28;20044;-66
2021/01/28 02:57:51;;;;;;;10.52;5.80;;;3.30;89.00;;;;;;5050262;28;20033;-66
2021/01/28 03:00:24;;;;;;;10.10;5.88;;;3.40;89.10;;;;;;5048562;28;20130;-66
2021/01/28 03:02:50;;;;;;;8.98;5.95;;;3.40;88.90;;;;;;5049969;28;20501;-66
2021/01/28 03:05:16;;;;;;;10.65;5.95;;;3.30;88.80;;;;;;5048712;28;20032;-67
2021/01/28 03:07:42;;;;;;;8.43;6.00;;;3.30;88.90;;;;;;5047674;28;20033;-66
2021/01/28 03:10:09;;;;;;;10.75;6.93;;;3.30;89.00;;;;;;5049869;28;20024;-66
2021/01/28 03:12:34;;;;;;;12.88;6.78;;;3.40;89.00;;;;;;5049918;28;20107;-66
2021/01/28 03:15:00;;;;;;;11.50;6.78;;;3.40;88.90;;;;;;5048246;28;20107;-66
2021/01/28 03:17:25;;;;;;;11.10;6.75;;;3.40;88.80;;;;;;5049587;28;20039;-66
2021/01/28 03:19:51;;;;;;;12.18;7.18;;;3.40;88.70;;;;;;5048843;28;20107;-66
2021/01/28 03:22:16;;;;;;;12.68;7.15;;;3.40;88.60;;;;;;5047613;28;20473;-66
2021/01/28 03:24:42;;;;;;;11.82;7.40;;;3.50;88.70;;;;;;5048522;28;20112;-66
2021/01/28 03:27:08;;;;;;;15.35;7.03;;;3.50;88.60;;;;;;5049102;28;20068;-66
2021/01/28 03:29:33;;;;;;;14.35;7.30;;;3.50;89.10;;;;;;5048734;28;20139;-67
2021/01/28 03:31:59;;;;;;;10.90;6.90;;;3.50;88.60;;;;;;5030639;28;20477;-66
2021/01/28 03:34:24;;;;;;;10.98;6.35;;;3.50;88.50;;;;;;5049704;28;20021;-66
2021/01/28 03:36:50;;;;;;;12.50;7.18;;;3.50;88.50;;;;;;5050247;28;20089;-66
2021/01/28 03:39:16;;;;;;;11.93;7.18;;;3.50;88.50;;;;;;5048736;28;20477;-66
2021/01/28 03:41:42;;;;;;;11.40;6.85;;;3.50;88.50;;;;;;5047245;28;20122;-66
2021/01/28 03:44:07;;;;;;;10.23;6.40;;;3.40;88.40;;;;;;5029997;28;20124;-66
2021/01/28 03:46:33;;;;;;;10.45;6.82;;;3.40;88.40;;;;;;5048199;28;20025;-66
2021/01/28 03:48:59;;;;;;;9.52;5.95;;;3.40;88.90;;;;;;5047354;28;20025;-66
2021/01/28 03:51:24;;;;;;;12.75;6.60;;;3.40;88.40;;;;;;5047501;28;20079;-66
2021/01/28 03:53:50;;;;;;;11.88;6.63;;;3.40;88.30;;;;;;5048495;28;20021;-66
2021/01/28 03:56:15;;;;;;;12.15;6.80;;;3.40;88.40;;;;;;5049275;28;20064;-66
2021/01/28 03:58:41;;;;;;;15.15;6.47;;;3.30;88.50;;;;;;5049256;28;20032;-66
2021/01/28 04:01:08;;;;;;;14.45;6.70;;;3.30;88.60;;;;;;5047814;28;20027;-66
2021/01/28 04:03:34;;;;;;;14.32;6.72;;;3.30;88.60;;;;;;5049093;28;20475;-66
2021/01/28 04:06:00;;;;;;;12.70;6.63;;;3.30;88.50;;;;;;5038193;22;20591;-66
2021/01/28 04:08:25;;;;;;;13.25;7.15;;;3.40;88.50;;;;;;5036897;28;20024;-64
2021/01/28 04:10:51;;;;;;;11.20;6.88;;;3.40;88.40;;;;;;5049372;28;20114;-64
2021/01/28 04:13:17;;;;;;;12.48;6.63;;;3.40;88.40;;;;;;5048064;28;20108;-64
2021/01/28 04:15:42;;;;;;;10.13;6.00;;;3.30;88.80;;;;;;5031507;28;20029;-64
2021/01/28 04:18:08;;;;;;;12.02;6.65;;;3.30;88.20;;;;;;5043042;28;20109;-65
2021/01/28 04:20:35;;;;;;;10.90;6.00;;;3.30;88.30;;;;;;5011128;28;20034;-64
2021/01/28 04:23:01;;;;;;;12.45;6.95;;;3.30;88.40;;;;;;5029472;28;20084;-64
2021/01/28 04:25:27;;;;;;;14.15;6.88;;;3.30;88.50;;;;;;5027718;28;20037;-65
2021/01/28 04:27:55;;;;;;;14.35;7.38;;;3.30;88.50;;;;;;5034089;28;20146;-64
2021/01/28 04:30:28;;;;;;;11.88;6.80;;;3.30;88.50;;;;;;5031083;28;20030;-65
2021/01/28 04:32:53;;;;;;;12.77;7.30;;;3.30;88.40;;;;;;5035838;28;20487;-64
2021/01/28 04:35:19;;;;;;;11.88;7.43;;;3.30;88.40;;;;;;5030304;28;20060;-64
2021/01/28 04:37:45;;;;;;;13.77;7.85;;;3.30;88.40;;;;;;5032163;28;20123;-65
2021/01/28 04:40:39;;;;;;;14.52;7.68;;;3.30;89.00;;;;;;5018629;28;20021;-64
2021/01/28 04:43:26;;;;;;;11.35;6.40;;;3.30;88.60;;;;;;5036173;28;20105;-66
2021/01/28 04:45:54;;;;;;;12.38;6.57;;;3.30;88.50;;;;;;5044409;28;20029;-65
2021/01/28 04:48:20;;;;;;;10.75;7.18;;;3.30;88.40;;;;;;5035762;28;20034;-64
2021/01/28 04:50:46;;;;;;;13.30;7.97;;;3.30;88.50;;;;;;5031037;28;20131;-65
2021/01/28 04:53:19;;;;;;;13.18;6.68;;;3.30;88.40;;;;;;5030833;28;20026;-65
2021/01/28 04:55:50;;;;;;;12.02;6.75;;;3.30;88.40;;;;;;5032120;28;20040;-65
2021/01/28 04:58:17;;;;;;;13.07;6.50;;;3.30;88.50;;;;;;5031685;28;20025;-65
2021/01/28 05:00:43;;;;;;;11.10;6.47;;;3.30;88.40;;;;;;5032885;28;20276;-64
2021/01/28 05:03:28;;;;;;;10.02;6.13;;;3.30;88.40;;;;;;5031553;28;20500;-64
2021/01/28 05:05:56;;;;;;;12.38;7.07;;;3.30;88.50;;;;;;5030706;28;20381;-66
2021/01/28 05:08:22;;;;;;;13.32;7.05;;;3.30;88.40;;;;;;5010341;28;20437;-67
2021/01/28 05:10:53;;;;;;;9.27;6.38;;;3.30;88.50;;;;;;5031123;28;20029;-65
2021/01/28 05:13:27;;;;;;;11.70;6.30;;;3.30;88.50;;;;;;5034901;28;20025;-64
2021/01/28 05:15:53;;;;;;;12.23;6.47;;;3.30;88.50;;;;;;5031468;28;20467;-64
2021/01/28 05:18:34;;;;;;;12.57;6.85;;;3.30;88.40;;;;;;5029876;28;20104;-64
2021/01/28 05:21:19;;;;;;;10.80;6.10;;;3.30;88.50;;;;;;5019823;28;20025;-66
2021/01/28 05:23:45;;;;;;;11.38;6.55;;;3.40;88.50;;;;;;5020891;28;20017;-65
2021/01/28 05:26:47;;;;;;;12.40;7.00;;;3.40;88.50;;;;;;5030138;28;20640;-63
2021/01/28 05:29:12;;;;;;;8.68;6.22;;;3.40;88.50;;;;;;4941017;29;20035;-66
2021/01/28 05:31:38;;;;;;;13.85;7.10;;;3.40;88.40;;;;;;4995619;28;20526;-64
2021/01/28 05:34:06;;;;;;;14.60;8.52;;;3.40;88.50;;;;;;5024756;28;20036;-65
2021/01/28 05:36:32;;;;;;;15.05;8.00;;;3.40;88.40;;;;;;5029860;28;20021;-64
2021/01/28 05:39:13;;;;;;;12.30;7.05;;;3.40;88.40;;;;;;5027799;28;20145;-64
2021/01/28 05:41:45;;;;;;;15.48;8.88;;;3.50;88.50;;;;;;5031670;28;20509;-66
2021/01/28 05:44:13;;;;;;;15.75;9.10;;;3.50;88.40;;;;;;5032649;28;20037;-65
2021/01/28 05:46:39;;;;;;;13.63;7.55;;;3.50;88.40;;;;;;5029757;28;20056;-64
2021/01/28 05:49:31;;;;;;;12.52;6.78;;;3.50;88.30;;;;;;5027829;28;20691;-63
2021/01/28 05:52:30;;;;;;;12.15;7.40;;;3.50;88.40;;;;;;5027891;28;20113;-66
2021/01/28 05:55:12;;;;;;;12.32;7.38;;;3.60;88.40;;;;;;5035270;28;20037;-63
2021/01/28 05:57:58;;;;;;;10.10;6.55;;;3.60;88.40;;;;;;5044815;28;20025;-65
2021/01/28 06:00:33;;;;;;;11.70;6.75;;;3.60;88.40;;;;;;5030646;28;20057;-63
2021/01/28 06:03:17;;;;;;;11.27;6.68;;;3.60;88.30;;;;;;5030842;28;20025;-63
2021/01/28 06:06:06;;;;;;;11.23;6.40;;;3.60;88.30;;;;;;5031468;28;20028;-62
2021/01/28 06:08:51;;;;;;;9.10;5.78;;;3.60;88.30;;;;;;5028557;28;20458;-64
2021/01/28 06:11:33;;;;;;;10.07;5.47;;;3.60;88.30;;;;;;5037963;28;20454;-63
2021/01/28 06:13:58;;;;;;;7.90;5.45;;;3.60;88.90;;;;;;5029408;28;20037;-63
2021/01/28 06:16:31;;;;;;;10.07;5.65;;;3.60;88.90;;;;;;5027850;28;20030;-64
2021/01/28 06:19:20;;;;;;;10.18;5.50;;;3.70;88.40;;;;;;5026032;28;20048;-64
2021/01/28 06:22:12;;;;;;;8.60;4.93;;;3.70;88.50;;;;;;5029829;28;20108;-64
2021/01/28 06:25:22;;;;;;;7.88;5.20;;;3.70;88.40;;;;;;5029097;28;20025;-63
2021/01/28 06:28:11;;;;;;;10.63;5.22;;;3.70;88.40;;;;;;4999398;28;20065;-64
2021/01/28 06:30:59;;;;;;;9.80;6.43;;;3.70;88.40;;;;;;5029733;28;20057;-64
2021/01/28 06:33:30;;;;;;;12.32;6.43;;;3.70;88.40;;;;;;5034948;28;20037;-65
2021/01/28 06:36:14;;;;;;;10.53;5.83;;;3.60;88.40;;;;;;5030994;28;20021;-64
2021/01/28 06:38:48;;;;;;;9.68;5.75;;;3.60;88.60;;;;;;5035533;28;20025;-63
2021/01/28 06:41:21;;;;;;;10.88;5.80;;;3.60;88.60;;;;;;5012585;28;20017;-62
2021/01/28 06:44:04;;;;;;;13.65;7.07;;;3.60;88.70;;;;;;5030891;28;20589;-64
2021/01/28 06:46:54;;;;;;;10.90;6.28;;;3.60;88.80;;;;;;5028674;28;20073;-64
2021/01/28 06:49:45;;;;;;;13.25;6.55;;;3.70;88.80;;;;;;5030991;28;20018;-62
2021/01/28 06:52:32;;;;;;;11.23;6.50;;;3.70;88.70;;;;;;5017976;28;20041;-63
2021/01/28 06:55:24;;;;;;;11.90;6.88;;;3.70;88.80;;;;;;5029441;28;20026;-62
2021/01/28 06:58:06;;;;;;;15.05;6.88;;;3.70;88.80;;;;;;5023257;28;20029;-63
2021/01/28 07:00:43;;;;;;;12.43;6.95;;;3.70;88.80;;;;;;5030046;28;20025;-61
2021/01/28 07:03:46;;;;;;;16.08;7.28;;;3.70;88.80;;;;;;5029908;28;20034;-62
2021/01/28 07:06:26;;;;;;;15.68;6.65;;;3.70;88.80;;;;;;5029072;28;20033;-65
2021/01/28 07:09:18;;;;;;;12.35;6.47;;;3.70;88.80;;;;;;5011911;28;20037;-64
2021/01/28 07:11:44;;;;;;;13.20;6.78;;;3.70;88.70;;;;;;5026811;28;20068;-67
2021/01/28 07:14:15;;;;;;;12.80;6.28;;;3.70;88.70;;;;;;5014421;28;20486;-64
2021/01/28 07:17:00;;;;;;;18.90;6.72;;;3.70;88.80;;;;;;5030716;28;20033;-64
2021/01/28 07:19:36;;;;;;;12.88;6.78;;;3.80;88.90;;;;;;5030645;28;20021;-63
2021/01/28 07:22:16;;;;;;;13.45;6.68;;;3.80;88.80;;;;;;5029998;28;20119;-64
2021/01/28 07:24:42;;;;;;;14.10;6.50;;;3.80;88.80;;;;;;5028580;28;20033;-64
2021/01/28 07:27:12;;;;;;;12.70;6.57;;;3.90;88.70;;;;;;5030598;28;20101;-64
2021/01/28 07:29:54;;;;;;;16.98;7.95;;;3.90;88.80;;;;;;5030397;28;20034;-64
2021/01/28 07:32:22;;;;;;;14.35;7.07;;;3.90;88.80;;;;;;5026876;28;20032;-64
2021/01/28 07:35:29;;;;;;;16.27;6.45;;;3.90;88.80;;;;;;5029249;28;20033;-64
2021/01/28 07:38:15;;;;;;;14.10;5.97;;;3.90;88.90;;;;;;5016288;28;20026;-63
2021/01/28 07:41:09;;;;;;;21.27;8.40;;;3.90;88.70;;;;;;5025804;28;20025;-64
2021/01/28 07:43:44;;;;;;;12.98;6.53;;;4.00;88.70;;;;;;5027798;28;20030;-64
2021/01/28 07:46:28;;;;;;;15.23;6.55;;;4.00;88.60;;;;;;5029170;28;20022;-64
2021/01/28 07:49:22;;;;;;;17.48;7.07;;;3.90;88.60;;;;;;5030670;28;20021;-65
2021/01/28 07:52:12;;;;;;;12.75;5.93;;;3.90;88.60;;;;;;5028945;28;20014;-64
2021/01/28 07:54:45;;;;;;;15.30;6.40;;;3.90;88.60;;;;;;5020104;28;20504;-64
2021/01/28 07:57:32;;;;;;;15.27;7.07;;;3.90;88.80;;;;;;5017246;28;20527;-64
2021/01/28 08:00:08;;;;;;;15.65;6.85;;;3.90;88.70;;;;;;5022789;28;20492;-64
2021/01/28 08:02:36;;;;;;;18.20;7.13;;;3.90;88.80;;;;;;5025568;28;20069;-64
2021/01/28 08:05:04;;;;;;;17.33;7.70;;;3.90;88.90;;;;;;5009046;28;20033;-64
2021/01/28 08:07:40;;;;;;;18.15;7.72;;;3.90;88.90;;;;;;5032818;28;20052;-64
2021/01/28 08:10:24;;;;;;;15.57;7.28;;;3.90;89.00;;;;;;5032948;28;20018;-64
2021/01/28 08:12:59;;;;;;;14.82;6.60;;;3.90;89.10;;;;;;5033681;28;20021;-64
2021/01/28 08:15:34;;;;;;;12.48;6.70;;;3.90;89.10;;;;;;5032900;28;20041;-64
2021/01/28 08:18:27;;;;;;;17.95;7.35;;;3.90;89.10;;;;;;5033459;28;20028;-65
2021/01/28 08:21:21;;;;;;;14.40;6.70;;;3.90;89.20;;;;;;5033524;28;20045;-64
2021/01/28 08:23:48;;;;;;;18.83;7.38;;;3.90;89.20;;;;;;5042599;28;20021;-64
2021/01/28 08:26:23;;;;;;;13.23;5.82;;;3.90;89.30;;;;;;5052905;28;20029;-64
2021/01/28 08:29:01;;;;;;;11.85;6.40;;;3.90;89.40;;;;;;5021997;28;20053;-64
2021/01/28 08:31:37;;;;;;;18.55;7.55;;;3.90;89.40;;;;;;5019751;28;20382;-65
2021/01/28 08:34:05;;;;;;;14.43;6.60;;;3.90;89.50;;;;;;5032092;28;20029;-65
2021/01/28 08:36:42;;;;;;;13.57;6.88;;;3.90;89.50;;;;;;5031925;28;20025;-64
2021/01/28 08:39:21;;;;;;;15.13;6.85;;;3.90;89.50;;;;;;5015449;28;20024;-65
2021/01/28 08:42:01;;;;;;;14.50;7.00;;;3.90;89.70;;;;;;5014642;28;20421;-63
2021/01/28 08:44:27;;;;;;;13.50;6.95;;;3.90;89.70;;;;;;5030199;28;20025;-63
2021/01/28 08:47:13;;;;;;;16.20;7.28;;;4.00;90.10;;;;;;5033045;28;20041;-63
2021/01/28 08:49:39;;;;;;;12.90;6.63;;;4.00;89.80;;;;;;5034230;28;20091;-64
2021/01/28 08:52:12;;;;;;;15.23;5.93;;;4.00;89.60;;;;;;5033735;28;20033;-63
2021/01/28 08:54:42;;;;;;;12.40;6.07;;;4.00;89.70;;;;;;5031792;28;20087;-64
2021/01/28 08:57:20;;;;;;;14.13;6.78;;;4.00;89.70;;;;;;5032660;28;20032;-64
2021/01/28 08:59:53;;;;;;;15.82;7.15;;;4.10;89.80;;;;;;5032389;28;20026;-64
2021/01/28 09:02:24;;;;;;;13.80;6.20;;;4.10;89.70;;;;;;5031873;28;20017;-63
2021/01/28 09:05:04;;;;;;;16.40;6.63;;;4.10;89.80;;;;;;5029377;28;20034;-64
2021/01/28 09:07:48;;;;;;;15.05;7.47;;;4.10;90.00;;;;;;5032130;28;20036;-64
2021/01/28 09:10:34;;;;;;;14.05;6.28;;;4.10;89.90;;;;;;5032953;28;20027;-62
2021/01/28 09:13:21;;;;;;;15.80;6.70;;;4.20;89.90;;;;;;5031810;28;20116;-64
2021/01/28 09:15:49;;;;;;;12.93;5.97;;;4.20;89.90;;;;;;5013213;28;20429;-64
2021/01/28 09:18:26;;;;;;;13.10;6.00;;;4.20;89.80;;;;;;5031204;28;20033;-62
2021/01/28 09:20:52;;;;;;;13.55;6.10;;;4.20;89.90;;;;;;5031790;28;20030;-63
2021/01/28 09:23:19;;;;;;;15.75;6.40;;;4.20;89.90;;;;;;5032712;28;20028;-63
2021/01/28 09:25:47;;;;;;;17.40;6.07;;;4.30;89.90;;;;;;5030596;28;20049;-65
2021/01/28 09:28:14;;;;;;;11.18;5.50;;;4.30;89.90;;;;;;5032535;28;20029;-65
2021/01/28 09:30:46;;;;;;;11.35;5.80;;;4.30;89.90;;;;;;5031920;28;20025;-64
2021/01/28 09:33:41;;;;;;;14.68;6.63;;;4.30;89.90;;;;;;5026402;28;20052;-64
2021/01/28 09:36:20;;;;;;;14.80;6.43;;;4.40;89.90;;;;;;5006940;28;20386;-65
2021/01/28 09:39:10;;;;;;;14.10;6.22;;;4.40;89.90;;;;;;5031212;28;20137;-63
2021/01/28 09:41:45;;;;;;;16.75;7.03;;;4.40;89.90;;;;;;5024086;28;20029;-64
2021/01/28 09:44:34;;;;;;;13.32;6.13;;;4.40;90.00;;;;;;5031192;28;20018;-64
2021/01/28 09:47:18;;;;;;;14.48;6.65;;;4.50;90.00;;;;;;5031649;28;20701;-64
2021/01/28 09:49:49;;;;;;;14.23;6.88;;;4.50;90.00;;;;;;5009178;28;20026;-64
2021/01/28 09:52:19;;;;;;;13.32;6.53;;;4.50;90.00;;;;;;5011258;28;20037;-64
2021/01/28 09:54:48;;;;;;;15.48;5.93;;;4.50;90.00;;;;;;5030806;28;20362;-64
2021/01/28 09:57:13;;;;;;;13.20;6.25;;;4.40;90.00;;;;;;5026309;28;20044;-65
2021/01/28 09:59:39;;;;;;;15.70;6.78;;;4.50;90.10;;;;;;5032375;28;20018;-64
2021/01/28 10:02:05;;;;;;;15.82;6.75;;;4.40;90.40;;;;;;5031681;28;20150;-65
2021/01/28 10:04:30;;;;;;;25.00;9.35;;;4.50;90.20;;;;;;5031196;28;20021;-64
2021/01/28 10:06:56;;;;;;;18.05;8.07;;;4.50;90.20;;;;;;5086742;23;20512;-89
2021/01/28 10:09:22;;;;;;;22.42;8.57;;;4.50;90.30;;;;;;5038842;28;20025;-88
2021/01/28 10:11:47;;;;;;;21.45;8.57;;;4.50;90.30;;;;;;5036473;28;20021;-89
2021/01/28 10:14:13;;;;;;;32.00;10.90;;;4.50;90.30;;;;;;5054128;28;20021;-89
2021/01/28 10:16:39;;;;;;;29.92;12.10;;;4.60;90.40;;;;;;5036268;28;20017;-90
2021/01/28 10:19:04;;;;;;;24.58;12.52;;;4.60;90.40;;;;;;5052932;28;20048;-90
2021/01/28 10:21:30;;;;;;;23.27;11.15;;;4.70;90.40;;;;;;5036334;28;20075;-90
2021/01/28 10:23:55;;;;;;;15.35;7.75;;;4.70;90.40;;;;;;5031781;28;20586;-89
2021/01/28 10:26:21;;;;;;;16.40;6.35;;;4.60;90.30;;;;;;5035021;28;20032;-89
2021/01/28 10:28:47;;;;;;;13.80;6.70;;;4.60;90.30;;;;;;5030678;28;20440;-89
2021/01/28 10:31:12;;;;;;;15.95;7.65;;;4.70;90.40;;;;;;5038343;28;20032;-90
2021/01/28 10:33:39;;;;;;;14.73;6.88;;;4.70;90.40;;;;;;5038369;28;20025;-89
2021/01/28 10:36:09;;;;;;;14.18;7.47;;;4.70;90.30;;;;;;5052078;28;20013;-90
2021/01/28 10:38:37;;;;;;;18.52;9.15;;;4.70;90.40;;;;;;5052708;28;20029;-91
2021/01/28 10:41:05;;;;;;;22.23;8.95;;;4.80;90.40;;;;;;5053820;28;20124;-90
2021/01/28 10:43:30;;;;;;;21.08;8.10;;;4.70;90.40;;;;;;5045816;28;20053;-91
2021/01/28 10:45:56;;;;;;;20.25;10.35;;;4.80;90.40;;;;;;5036375;28;20075;-90
2021/01/28 10:48:22;;;;;;;15.18;7.38;;;4.80;90.50;;;;;;5037410;28;20534;-90
2021/01/28 10:50:49;;;;;;;14.77;6.88;;;4.90;90.50;;;;;;5036991;28;20033;-89
2021/01/28 10:53:15;;;;;;;15.07;5.93;;;4.80;90.50;;;;;;5037065;28;20029;-91
2021/01/28 10:55:41;;;;;;;15.50;7.55;;;4.90;90.50;;;;;;5037913;28;20059;-90
2021/01/28 10:58:07;;;;;;;11.50;6.18;;;5.00;90.60;;;;;;5037480;28;20067;-90
2021/01/28 11:00:33;;;;;;;15.45;7.47;;;4.90;90.50;;;;;;5038450;28;20029;-89
2021/01/28 11:03:00;;;;;;;15.18;7.82;;;5.00;90.60;;;;;;5037122;28;20025;-89
2021/01/28 11:05:35;;;;;;;15.05;6.55;;;5.00;90.60;;;;;;5037086;28;20029;-90
2021/01/28 11:08:01;;;;;;;13.13;6.35;;;5.00;90.60;;;;;;5029038;28;20082;-89
2021/01/28 11:10:28;;;;;;;12.60;6.30;;;5.00;90.60;;;;;;5029219;28;20029;-90
2021/01/28 11:12:55;;;;;;;14.30;7.10;;;5.00;90.60;;;;;;5027551;28;20025;-89
2021/01/28 11:15:22;;;;;;;14.50;6.28;;;5.10;90.70;;;;;;5036461;28;20458;-90
2021/01/28 11:17:48;;;;;;;11.55;5.55;;;5.10;90.70;;;;;;5021862;28;20053;-90
2021/01/28 11:20:14;;;;;;;10.88;5.18;;;5.20;90.90;;;;;;5019954;28;20052;-89
2021/01/28 11:22:40;;;;;;;8.80;6.05;;;5.20;91.10;;;;;;5036571;28;20059;-89
2021/01/28 11:25:09;;;;;;;6.43;4.20;;;5.40;91.20;;;;;;5037662;28;20487;-88
2021/01/28 11:27:35;;;;;;;5.80;3.63;;;5.40;91.30;;;;;;5036934;28;20029;-90
2021/01/28 11:30:00;;;;;;;4.35;3.17;;;5.50;91.30;;;;;;5038911;28;20378;-89
2021/01/28 11:32:26;;;;;;;6.00;3.88;;;5.50;91.20;;;;;;5036914;28;20433;-89
2021/01/28 11:34:55;;;;;;;6.40;3.97;;;5.60;91.30;;;;;;5035892;28;20068;-88
2021/01/28 11:37:20;;;;;;;5.32;3.50;;;5.60;91.30;;;;;;5034878;28;20056;-89
2021/01/28 11:39:47;;;;;;;6.57;3.22;;;5.60;91.30;;;;;;5034672;28;20060;-89
2021/01/28 11:42:13;;;;;;;6.65;4.10;;;5.70;91.30;;;;;;5034891;28;20419;-89
2021/01/28 11:44:39;;;;;;;5.20;3.35;;;5.70;91.30;;;;;;5053118;28;20017;-89
2021/01/28 11:47:04;;;;;;;9.25;4.78;;;5.70;91.30;;;;;;5034927;28;20028;-89
2021/01/28 11:49:30;;;;;;;6.40;3.70;;;5.80;91.20;;;;;;5035010;28;20082;-89
2021/01/28 11:51:55;;;;;;;5.18;3.35;;;5.90;91.30;;;;;;5035230;28;20028;-89
2021/01/28 11:54:21;;;;;;;5.47;2.90;;;5.90;91.30;;;;;;5034857;28;20031;-89
2021/01/28 11:56:46;;;;;;;3.22;2.70;;;5.90;91.50;;;;;;5034696;28;20033;-89
2021/01/28 11:59:12;;;;;;;3.70;2.90;;;5.90;91.50;;;;;;5035331;28;20029;-89
2021/01/28 12:01:38;;;;;;;3.08;2.60;;;5.90;91.20;;;;;;5052617;28;20028;-89
2021/01/28 12:04:03;;;;;;;5.22;2.95;;;6.00;91.30;;;;;;5056125;28;20025;-90
2021/01/28 12:06:29;;;;;;;2.67;2.42;;;6.00;91.30;;;;;;5060213;28;20036;-89
2021/01/28 12:08:54;;;;;;;3.72;2.78;;;6.00;91.30;;;;;;5041276;28;20033;-89
2021/01/28 12:11:20;;;;;;;2.38;2.13;;;6.10;91.30;;;;;;5038767;28;20124;-90
2021/01/28 12:13:46;;;;;;;2.78;2.35;;;6.10;91.30;;;;;;5048046;28;20088;-90
2021/01/28 12:16:14;;;;;;;5.25;3.13;;;6.20;91.30;;;;;;5047315;28;20029;-89
2021/01/28 12:18:40;;;;;;;3.13;2.60;;;6.20;91.30;;;;;;5051549;28;20065;-89
2021/01/28 12:21:05;;;;;;;2.65;2.38;;;6.20;91.40;;;;;;5037897;28;20025;-89
2021/01/28 12:23:31;;;;;;;3.65;2.72;;;6.20;91.40;;;;;;5036845;28;20025;-88
2021/01/28 12:25:56;;;;;;;3.53;2.60;;;6.20;91.40;;;;;;5036586;28;20017;-89
2021/01/28 12:28:24;;;;;;;3.53;2.33;;;6.30;91.40;;;;;;5036297;28;20044;-89
2021/01/28 12:30:50;;;;;;;2.83;2.53;;;6.40;91.50;;;;;;5036184;28;20028;-89
2021/01/28 12:33:16;;;;;;;3.72;2.15;;;6.40;91.50;;;;;;5038832;28;20120;-89
2021/01/28 12:35:44;;;;;;;2.80;2.13;;;6.50;91.50;;;;;;5054070;28;20040;-90
2021/01/28 12:38:10;;;;;;;2.10;1.83;;;6.50;91.50;;;;;;5056358;28;20104;-90
2021/01/28 12:40:35;;;;;;;1.92;1.80;;;6.60;91.50;;;;;;5057580;28;20115;-90
2021/01/28 12:43:01;;;;;;;2.42;1.73;;;6.60;91.50;;;;;;5056672;28;20033;-90
2021/01/28 12:45:27;;;;;;;2.10;1.83;;;6.60;91.50;;;;;;5055237;28;20029;-90
2021/01/28 12:47:53;;;;;;;3.72;2.38;;;6.60;91.50;;;;;;5038551;28;20029;-90
2021/01/28 12:50:19;;;;;;;3.92;2.22;;;6.60;91.50;;;;;;5036500;28;20564;-90
2021/01/28 12:52:46;;;;;;;3.58;2.40;;;6.70;91.50;;;;;;5037763;28;20032;-90
2021/01/28 12:55:12;;;;;;;2.08;1.92;;;6.80;91.50;;;;;;5038111;28;20402;-91
2021/01/28 12:57:39;;;;;;;2.13;1.90;;;6.80;91.50;;;;;;5023356;28;20381;-91
2021/01/28 13:00:07;;;;;;;2.58;1.90;;;6.90;91.60;;;;;;5023122;28;20025;-91
2021/01/28 13:02:33;;;;;;;3.42;2.22;;;6.90;91.50;;;;;;5023337;28;20025;-90
2021/01/28 13:04:58;;;;;;;1.92;1.80;;;6.90;91.50;;;;;;5025073;28;20025;-91
2021/01/28 13:07:24;;;;;;;1.92;1.60;;;6.90;91.50;;;;;;5042075;28;20554;-91